sensor_id;sensor_type;location;lat;lon;timestamp;P1;durP1;ratioP1;P2;durP2;ratioP2
9958;SDS011;5019;48.012;7.812;2022-11-23T00:01:10;1.43;;;1.17;;
9958;SDS011;5019;48.012;7.812;2022-11-23T00:03:36;1.23;;;1.00;;
9958;SDS011;5019;48.012;7.812;2022-11-23T00:06:02;2.10;;;1.00;;
9958;SDS011;5019;48.012;7.812;2022-11-23T00:08:28;1.63;;;0.97;;
9958;SDS011;5019;48.012;7.812;2022-11-23T00:10:57;0.97;;;0.93;;
9958;SDS011;5019;48.012;7.812;2022-11-23T00:13:23;1.20;;;1.17;;
9958;SDS011;5019;48.012;7.812;2022-11-23T00:15:49;0.87;;;0.87;;
9958;SDS011;5019;48.012;7.812;2022-11-23T00:18:15;3.20;;;1.43;;
9958;SDS011;5019;48.012;7.812;2022-11-23T00:20:41;1.60;;;1.00;;
9958;SDS011;5019;48.012;7.812;2022-11-23T00:23:07;8.43;;;0.80;;
9958;SDS011;5019;48.012;7.812;2022-11-23T00:25:33;1.10;;;1.03;;
9958;SDS011;5019;48.012;7.812;2022-11-23T00:28:00;1.40;;;1.30;;
9958;SDS011;5019;48.012;7.812;2022-11-23T00:30:26;0.90;;;0.90;;
9958;SDS011;5019;48.012;7.812;2022-11-23T00:32:53;2.00;;;1.13;;
9958;SDS011;5019;48.012;7.812;2022-11-23T00:35:19;0.97;;;0.97;;
9958;SDS011;5019;48.012;7.812;2022-11-23T00:37:45;4.43;;;1.00;;
9958;SDS011;5019;48.012;7.812;2022-11-23T00:40:11;8.23;;;1.03;;
9958;SDS011;5019;48.012;7.812;2022-11-23T00:42:37;1.23;;;0.90;;
9958;SDS011;5019;48.012;7.812;2022-11-23T00:45:03;3.53;;;1.27;;
9958;SDS011;5019;48.012;7.812;2022-11-23T00:47:30;3.47;;;1.53;;
9958;SDS011;5019;48.012;7.812;2022-11-23T00:49:56;0.80;;;0.80;;
9958;SDS011;5019;48.012;7.812;2022-11-23T00:52:22;0.70;;;0.70;;
9958;SDS011;5019;48.012;7.812;2022-11-23T00:54:48;1.40;;;0.90;;
9958;SDS011;5019;48.012;7.812;2022-11-23T00:57:14;0.87;;;0.87;;
9958;SDS011;5019;48.012;7.812;2022-11-23T00:59:40;5.00;;;1.00;;
9958;SDS011;5019;48.012;7.812;2022-11-23T01:02:06;3.00;;;1.00;;
9958;SDS011;5019;48.012;7.812;2022-11-23T01:04:32;1.47;;;1.10;;
9958;SDS011;5019;48.012;7.812;2022-11-23T01:06:59;1.23;;;1.10;;
9958;SDS011;5019;48.012;7.812;2022-11-23T01:09:25;1.90;;;0.70;;
9958;SDS011;5019;48.012;7.812;2022-11-23T01:11:52;0.90;;;0.90;;
9958;SDS011;5019;48.012;7.812;2022-11-23T01:14:18;0.90;;;0.90;;
9958;SDS011;5019;48.012;7.812;2022-11-23T01:16:45;3.10;;;0.80;;
9958;SDS011;5019;48.012;7.812;2022-11-23T01:19:12;1.60;;;0.90;;
9958;SDS011;5019;48.012;7.812;2022-11-23T01:21:38;1.30;;;1.20;;
9958;SDS011;5019;48.012;7.812;2022-11-23T01:24:05;1.57;;;0.90;;
9958;SDS011;5019;48.012;7.812;2022-11-23T01:26:32;2.30;;;0.80;;
9958;SDS011;5019;48.012;7.812;2022-11-23T01:28:58;2.30;;;1.00;;
9958;SDS011;5019;48.012;7.812;2022-11-23T01:31:24;2.10;;;1.03;;
9958;SDS011;5019;48.012;7.812;2022-11-23T01:33:57;3.17;;;1.10;;
9958;SDS011;5019;48.012;7.812;2022-11-23T01:36:24;3.53;;;1.33;;
9958;SDS011;5019;48.012;7.812;2022-11-23T01:38:51;0.50;;;0.50;;
9958;SDS011;5019;48.012;7.812;2022-11-23T01:41:19;5.03;;;0.90;;
9958;SDS011;5019;48.012;7.812;2022-11-23T01:43:45;2.27;;;1.10;;
9958;SDS011;5019;48.012;7.812;2022-11-23T01:46:11;1.23;;;1.00;;
9958;SDS011;5019;48.012;7.812;2022-11-23T01:48:39;1.23;;;0.70;;
9958;SDS011;5019;48.012;7.812;2022-11-23T01:51:11;0.83;;;0.83;;
9958;SDS011;5019;48.012;7.812;2022-11-23T01:53:38;3.37;;;2.70;;
9958;SDS011;5019;48.012;7.812;2022-11-23T01:56:05;1.10;;;1.00;;
9958;SDS011;5019;48.012;7.812;2022-11-23T01:58:33;1.80;;;0.60;;
9958;SDS011;5019;48.012;7.812;2022-11-23T02:01:00;6.23;;;1.93;;
9958;SDS011;5019;48.012;7.812;2022-11-23T02:03:27;0.80;;;0.80;;
9958;SDS011;5019;48.012;7.812;2022-11-23T02:05:55;1.90;;;0.80;;
9958;SDS011;5019;48.012;7.812;2022-11-23T02:08:25;1.73;;;1.20;;
9958;SDS011;5019;48.012;7.812;2022-11-23T02:10:52;1.13;;;1.03;;
9958;SDS011;5019;48.012;7.812;2022-11-23T02:13:19;1.00;;;0.80;;
9958;SDS011;5019;48.012;7.812;2022-11-23T02:15:45;2.00;;;1.90;;
9958;SDS011;5019;48.012;7.812;2022-11-23T02:18:13;1.70;;;1.07;;
9958;SDS011;5019;48.012;7.812;2022-11-23T02:20:40;0.80;;;0.80;;
9958;SDS011;5019;48.012;7.812;2022-11-23T02:26:07;0.80;;;0.80;;
9958;SDS011;5019;48.012;7.812;2022-11-23T02:28:44;1.03;;;0.93;;
9958;SDS011;5019;48.012;7.812;2022-11-23T02:31:11;2.00;;;0.93;;
9958;SDS011;5019;48.012;7.812;2022-11-23T02:33:37;0.70;;;0.70;;
9958;SDS011;5019;48.012;7.812;2022-11-23T02:38:48;4.07;;;0.93;;
9958;SDS011;5019;48.012;7.812;2022-11-23T02:41:14;1.23;;;1.00;;
9958;SDS011;5019;48.012;7.812;2022-11-23T02:43:40;4.17;;;0.70;;
9958;SDS011;5019;48.012;7.812;2022-11-23T02:46:06;0.70;;;0.70;;
9958;SDS011;5019;48.012;7.812;2022-11-23T02:48:32;1.37;;;0.90;;
9958;SDS011;5019;48.012;7.812;2022-11-23T02:50:59;0.90;;;0.90;;
9958;SDS011;5019;48.012;7.812;2022-11-23T02:53:25;4.47;;;1.07;;
9958;SDS011;5019;48.012;7.812;2022-11-23T02:55:51;0.83;;;0.83;;
9958;SDS011;5019;48.012;7.812;2022-11-23T02:58:17;0.60;;;0.60;;
9958;SDS011;5019;48.012;7.812;2022-11-23T03:00:43;3.13;;;0.93;;
9958;SDS011;5019;48.012;7.812;2022-11-23T03:03:09;0.93;;;0.80;;
9958;SDS011;5019;48.012;7.812;2022-11-23T03:05:35;0.80;;;0.80;;
9958;SDS011;5019;48.012;7.812;2022-11-23T03:08:01;1.57;;;0.90;;
9958;SDS011;5019;48.012;7.812;2022-11-23T03:10:27;1.60;;;1.17;;
9958;SDS011;5019;48.012;7.812;2022-11-23T03:12:54;0.90;;;0.73;;
9958;SDS011;5019;48.012;7.812;2022-11-23T03:15:20;1.03;;;0.83;;
9958;SDS011;5019;48.012;7.812;2022-11-23T03:17:46;0.87;;;0.73;;
9958;SDS011;5019;48.012;7.812;2022-11-23T03:20:12;0.70;;;0.70;;
9958;SDS011;5019;48.012;7.812;2022-11-23T03:22:38;2.07;;;1.03;;
9958;SDS011;5019;48.012;7.812;2022-11-23T03:25:04;1.60;;;1.23;;
9958;SDS011;5019;48.012;7.812;2022-11-23T03:27:30;9.10;;;1.80;;
9958;SDS011;5019;48.012;7.812;2022-11-23T03:29:58;3.40;;;1.10;;
9958;SDS011;5019;48.012;7.812;2022-11-23T03:32:24;2.40;;;1.10;;
9958;SDS011;5019;48.012;7.812;2022-11-23T03:34:50;2.50;;;1.60;;
9958;SDS011;5019;48.012;7.812;2022-11-23T03:37:16;2.10;;;0.93;;
9958;SDS011;5019;48.012;7.812;2022-11-23T03:39:42;6.63;;;1.20;;
9958;SDS011;5019;48.012;7.812;2022-11-23T03:42:08;0.80;;;0.70;;
9958;SDS011;5019;48.012;7.812;2022-11-23T03:44:34;1.37;;;1.20;;
9958;SDS011;5019;48.012;7.812;2022-11-23T03:47:00;1.00;;;0.80;;
9958;SDS011;5019;48.012;7.812;2022-11-23T03:49:26;0.80;;;0.80;;
9958;SDS011;5019;48.012;7.812;2022-11-23T03:51:52;2.63;;;1.30;;
9958;SDS011;5019;48.012;7.812;2022-11-23T03:54:19;3.73;;;1.00;;
9958;SDS011;5019;48.012;7.812;2022-11-23T03:56:45;3.63;;;1.10;;
9958;SDS011;5019;48.012;7.812;2022-11-23T03:59:11;0.77;;;0.70;;
9958;SDS011;5019;48.012;7.812;2022-11-23T04:01:37;0.73;;;0.73;;
9958;SDS011;5019;48.012;7.812;2022-11-23T04:04:03;0.60;;;0.60;;
9958;SDS011;5019;48.012;7.812;2022-11-23T04:06:29;0.90;;;0.90;;
9958;SDS011;5019;48.012;7.812;2022-11-23T04:08:56;1.23;;;0.80;;
9958;SDS011;5019;48.012;7.812;2022-11-23T04:11:22;1.63;;;1.10;;
9958;SDS011;5019;48.012;7.812;2022-11-23T04:13:48;1.00;;;0.90;;
9958;SDS011;5019;48.012;7.812;2022-11-23T04:16:14;1.00;;;1.00;;
9958;SDS011;5019;48.012;7.812;2022-11-23T04:18:40;2.73;;;0.73;;
9958;SDS011;5019;48.012;7.812;2022-11-23T04:21:06;3.23;;;1.03;;
9958;SDS011;5019;48.012;7.812;2022-11-23T04:23:32;0.80;;;0.77;;
9958;SDS011;5019;48.012;7.812;2022-11-23T04:25:58;1.07;;;1.07;;
9958;SDS011;5019;48.012;7.812;2022-11-23T04:28:24;2.10;;;0.80;;
9958;SDS011;5019;48.012;7.812;2022-11-23T04:30:50;1.23;;;1.03;;
9958;SDS011;5019;48.012;7.812;2022-11-23T04:33:16;3.60;;;1.13;;
9958;SDS011;5019;48.012;7.812;2022-11-23T04:35:42;1.00;;;1.00;;
9958;SDS011;5019;48.012;7.812;2022-11-23T04:38:08;2.60;;;1.17;;
9958;SDS011;5019;48.012;7.812;2022-11-23T04:40:34;1.90;;;1.07;;
9958;SDS011;5019;48.012;7.812;2022-11-23T04:43:01;1.13;;;0.90;;
9958;SDS011;5019;48.012;7.812;2022-11-23T04:45:27;4.53;;;1.00;;
9958;SDS011;5019;48.012;7.812;2022-11-23T04:47:54;1.10;;;1.10;;
9958;SDS011;5019;48.012;7.812;2022-11-23T04:50:20;0.90;;;0.90;;
9958;SDS011;5019;48.012;7.812;2022-11-23T04:52:46;1.87;;;1.30;;
9958;SDS011;5019;48.012;7.812;2022-11-23T04:55:12;3.80;;;0.80;;
9958;SDS011;5019;48.012;7.812;2022-11-23T04:57:38;0.77;;;0.70;;
9958;SDS011;5019;48.012;7.812;2022-11-23T05:00:04;0.87;;;0.80;;
9958;SDS011;5019;48.012;7.812;2022-11-23T05:02:30;6.53;;;2.00;;
9958;SDS011;5019;48.012;7.812;2022-11-23T05:04:56;1.03;;;0.80;;
9958;SDS011;5019;48.012;7.812;2022-11-23T05:07:22;4.90;;;1.10;;
9958;SDS011;5019;48.012;7.812;2022-11-23T05:09:48;2.03;;;1.70;;
9958;SDS011;5019;48.012;7.812;2022-11-23T05:12:14;0.70;;;0.70;;
9958;SDS011;5019;48.012;7.812;2022-11-23T05:14:40;5.23;;;1.47;;
9958;SDS011;5019;48.012;7.812;2022-11-23T05:17:07;0.80;;;0.80;;
9958;SDS011;5019;48.012;7.812;2022-11-23T05:19:33;1.57;;;0.97;;
9958;SDS011;5019;48.012;7.812;2022-11-23T05:21:59;3.30;;;1.43;;
9958;SDS011;5019;48.012;7.812;2022-11-23T05:24:25;1.13;;;1.00;;
9958;SDS011;5019;48.012;7.812;2022-11-23T05:26:51;1.90;;;1.17;;
9958;SDS011;5019;48.012;7.812;2022-11-23T05:29:16;3.50;;;1.10;;
9958;SDS011;5019;48.012;7.812;2022-11-23T05:31:43;3.80;;;1.00;;
9958;SDS011;5019;48.012;7.812;2022-11-23T05:34:09;0.80;;;0.80;;
9958;SDS011;5019;48.012;7.812;2022-11-23T05:36:35;1.27;;;1.17;;
9958;SDS011;5019;48.012;7.812;2022-11-23T05:39:01;1.10;;;1.10;;
9958;SDS011;5019;48.012;7.812;2022-11-23T05:41:27;0.90;;;0.90;;
9958;SDS011;5019;48.012;7.812;2022-11-23T05:43:53;1.53;;;0.93;;
9958;SDS011;5019;48.012;7.812;2022-11-23T05:46:18;1.80;;;1.70;;
9958;SDS011;5019;48.012;7.812;2022-11-23T05:48:44;1.60;;;0.97;;
9958;SDS011;5019;48.012;7.812;2022-11-23T05:51:10;1.63;;;1.13;;
9958;SDS011;5019;48.012;7.812;2022-11-23T05:53:36;2.20;;;1.07;;
9958;SDS011;5019;48.012;7.812;2022-11-23T05:56:02;5.50;;;2.37;;
9958;SDS011;5019;48.012;7.812;2022-11-23T05:58:28;1.33;;;1.23;;
9958;SDS011;5019;48.012;7.812;2022-11-23T06:00:58;4.70;;;1.00;;
9958;SDS011;5019;48.012;7.812;2022-11-23T06:03:24;1.23;;;1.13;;
9958;SDS011;5019;48.012;7.812;2022-11-23T06:05:50;1.13;;;1.13;;
9958;SDS011;5019;48.012;7.812;2022-11-23T06:08:16;1.23;;;1.23;;
9958;SDS011;5019;48.012;7.812;2022-11-23T06:10:42;0.90;;;0.90;;
9958;SDS011;5019;48.012;7.812;2022-11-23T06:13:08;2.20;;;0.80;;
9958;SDS011;5019;48.012;7.812;2022-11-23T06:15:34;1.37;;;1.27;;
9958;SDS011;5019;48.012;7.812;2022-11-23T06:18:00;1.00;;;1.00;;
9958;SDS011;5019;48.012;7.812;2022-11-23T06:20:27;1.00;;;1.00;;
9958;SDS011;5019;48.012;7.812;2022-11-23T06:22:54;2.30;;;1.20;;
9958;SDS011;5019;48.012;7.812;2022-11-23T06:25:20;1.33;;;0.90;;
9958;SDS011;5019;48.012;7.812;2022-11-23T06:27:53;4.43;;;1.53;;
9958;SDS011;5019;48.012;7.812;2022-11-23T06:30:19;2.20;;;1.20;;
9958;SDS011;5019;48.012;7.812;2022-11-23T06:32:45;1.20;;;1.10;;
9958;SDS011;5019;48.012;7.812;2022-11-23T06:35:11;1.63;;;1.53;;
9958;SDS011;5019;48.012;7.812;2022-11-23T06:37:37;0.93;;;0.93;;
9958;SDS011;5019;48.012;7.812;2022-11-23T06:40:03;1.20;;;1.10;;
9958;SDS011;5019;48.012;7.812;2022-11-23T06:42:29;1.57;;;1.47;;
9958;SDS011;5019;48.012;7.812;2022-11-23T06:44:55;1.57;;;1.03;;
9958;SDS011;5019;48.012;7.812;2022-11-23T06:47:21;2.20;;;1.30;;
9958;SDS011;5019;48.012;7.812;2022-11-23T06:49:47;2.73;;;1.73;;
9958;SDS011;5019;48.012;7.812;2022-11-23T06:52:13;1.20;;;1.20;;
9958;SDS011;5019;48.012;7.812;2022-11-23T06:54:39;1.20;;;1.10;;
9958;SDS011;5019;48.012;7.812;2022-11-23T06:57:08;1.37;;;1.27;;
9958;SDS011;5019;48.012;7.812;2022-11-23T06:59:34;5.70;;;1.20;;
9958;SDS011;5019;48.012;7.812;2022-11-23T07:02:00;1.33;;;1.23;;
9958;SDS011;5019;48.012;7.812;2022-11-23T07:04:26;3.17;;;1.00;;
9958;SDS011;5019;48.012;7.812;2022-11-23T07:06:52;1.00;;;1.00;;
9958;SDS011;5019;48.012;7.812;2022-11-23T07:09:18;1.50;;;1.40;;
9958;SDS011;5019;48.012;7.812;2022-11-23T07:11:44;3.10;;;1.00;;
9958;SDS011;5019;48.012;7.812;2022-11-23T07:14:10;1.23;;;1.13;;
9958;SDS011;5019;48.012;7.812;2022-11-23T07:16:37;1.03;;;1.03;;
9958;SDS011;5019;48.012;7.812;2022-11-23T07:19:02;1.43;;;1.33;;
9958;SDS011;5019;48.012;7.812;2022-11-23T07:21:28;7.13;;;1.30;;
9958;SDS011;5019;48.012;7.812;2022-11-23T07:23:54;8.37;;;1.60;;
9958;SDS011;5019;48.012;7.812;2022-11-23T07:26:20;0.90;;;0.90;;
9958;SDS011;5019;48.012;7.812;2022-11-23T07:28:46;2.63;;;1.20;;
9958;SDS011;5019;48.012;7.812;2022-11-23T07:31:12;1.60;;;1.37;;
9958;SDS011;5019;48.012;7.812;2022-11-23T07:33:43;1.10;;;1.10;;
9958;SDS011;5019;48.012;7.812;2022-11-23T07:36:09;1.27;;;1.10;;
9958;SDS011;5019;48.012;7.812;2022-11-23T07:38:35;3.07;;;1.00;;
9958;SDS011;5019;48.012;7.812;2022-11-23T07:41:01;0.70;;;0.70;;
9958;SDS011;5019;48.012;7.812;2022-11-23T07:43:28;0.70;;;0.70;;
9958;SDS011;5019;48.012;7.812;2022-11-23T07:45:54;3.40;;;1.17;;
9958;SDS011;5019;48.012;7.812;2022-11-23T07:48:21;7.50;;;1.50;;
9958;SDS011;5019;48.012;7.812;2022-11-23T07:50:50;2.07;;;1.00;;
9958;SDS011;5019;48.012;7.812;2022-11-23T07:53:16;2.00;;;1.17;;
9958;SDS011;5019;48.012;7.812;2022-11-23T07:55:42;0.90;;;0.90;;
9958;SDS011;5019;48.012;7.812;2022-11-23T07:58:09;0.80;;;0.80;;
9958;SDS011;5019;48.012;7.812;2022-11-23T08:00:35;0.70;;;0.70;;
9958;SDS011;5019;48.012;7.812;2022-11-23T08:03:01;0.80;;;0.80;;
9958;SDS011;5019;48.012;7.812;2022-11-23T08:05:27;1.43;;;1.00;;
9958;SDS011;5019;48.012;7.812;2022-11-23T08:07:57;0.80;;;0.80;;
9958;SDS011;5019;48.012;7.812;2022-11-23T08:10:24;5.10;;;1.60;;
9958;SDS011;5019;48.012;7.812;2022-11-23T08:12:50;0.87;;;0.87;;
9958;SDS011;5019;48.012;7.812;2022-11-23T08:15:16;2.40;;;1.10;;
9958;SDS011;5019;48.012;7.812;2022-11-23T08:17:42;3.13;;;1.27;;
9958;SDS011;5019;48.012;7.812;2022-11-23T08:20:08;1.13;;;1.03;;
9958;SDS011;5019;48.012;7.812;2022-11-23T08:22:34;0.70;;;0.70;;
9958;SDS011;5019;48.012;7.812;2022-11-23T08:25:00;6.23;;;0.90;;
9958;SDS011;5019;48.012;7.812;2022-11-23T08:27:26;4.00;;;1.07;;
9958;SDS011;5019;48.012;7.812;2022-11-23T08:29:52;2.83;;;1.07;;
9958;SDS011;5019;48.012;7.812;2022-11-23T08:32:18;9.17;;;1.07;;
9958;SDS011;5019;48.012;7.812;2022-11-23T08:34:44;2.40;;;1.10;;
9958;SDS011;5019;48.012;7.812;2022-11-23T08:37:10;1.00;;;1.00;;
9958;SDS011;5019;48.012;7.812;2022-11-23T08:39:36;1.00;;;0.90;;
9958;SDS011;5019;48.012;7.812;2022-11-23T08:42:02;0.97;;;0.80;;
9958;SDS011;5019;48.012;7.812;2022-11-23T08:44:28;1.10;;;0.93;;
9958;SDS011;5019;48.012;7.812;2022-11-23T08:46:54;1.80;;;1.00;;
9958;SDS011;5019;48.012;7.812;2022-11-23T08:49:20;1.30;;;1.20;;
9958;SDS011;5019;48.012;7.812;2022-11-23T08:51:46;2.30;;;0.83;;
9958;SDS011;5019;48.012;7.812;2022-11-23T08:54:12;0.90;;;0.90;;
9958;SDS011;5019;48.012;7.812;2022-11-23T08:56:38;1.00;;;0.90;;
9958;SDS011;5019;48.012;7.812;2022-11-23T08:59:04;4.10;;;1.00;;
9958;SDS011;5019;48.012;7.812;2022-11-23T09:01:30;2.60;;;0.80;;
9958;SDS011;5019;48.012;7.812;2022-11-23T09:03:56;1.30;;;0.83;;
9958;SDS011;5019;48.012;7.812;2022-11-23T09:06:22;0.93;;;0.90;;
9958;SDS011;5019;48.012;7.812;2022-11-23T09:08:53;0.97;;;0.97;;
9958;SDS011;5019;48.012;7.812;2022-11-23T09:11:19;1.00;;;0.97;;
9958;SDS011;5019;48.012;7.812;2022-11-23T09:13:45;1.00;;;0.90;;
9958;SDS011;5019;48.012;7.812;2022-11-23T09:16:11;1.23;;;0.90;;
9958;SDS011;5019;48.012;7.812;2022-11-23T09:18:37;1.13;;;1.00;;
9958;SDS011;5019;48.012;7.812;2022-11-23T09:21:04;1.03;;;0.87;;
9958;SDS011;5019;48.012;7.812;2022-11-23T09:23:30;4.30;;;0.90;;
9958;SDS011;5019;48.012;7.812;2022-11-23T09:25:57;3.20;;;1.13;;
9958;SDS011;5019;48.012;7.812;2022-11-23T09:28:23;0.87;;;0.87;;
9958;SDS011;5019;48.012;7.812;2022-11-23T09:30:51;5.60;;;1.10;;
9958;SDS011;5019;48.012;7.812;2022-11-23T09:33:17;1.10;;;1.00;;
9958;SDS011;5019;48.012;7.812;2022-11-23T09:35:43;2.10;;;1.10;;
9958;SDS011;5019;48.012;7.812;2022-11-23T09:38:09;3.13;;;1.13;;
9958;SDS011;5019;48.012;7.812;2022-11-23T09:40:36;1.10;;;1.00;;
9958;SDS011;5019;48.012;7.812;2022-11-23T09:45:48;0.80;;;0.80;;
9958;SDS011;5019;48.012;7.812;2022-11-23T09:51:00;2.20;;;0.87;;
9958;SDS011;5019;48.012;7.812;2022-11-23T09:53:34;3.23;;;0.90;;
9958;SDS011;5019;48.012;7.812;2022-11-23T09:56:01;3.63;;;0.63;;
9958;SDS011;5019;48.012;7.812;2022-11-23T09:58:29;1.13;;;0.90;;
9958;SDS011;5019;48.012;7.812;2022-11-23T10:00:59;0.70;;;0.70;;
9958;SDS011;5019;48.012;7.812;2022-11-23T10:03:29;0.70;;;0.70;;
9958;SDS011;5019;48.012;7.812;2022-11-23T10:06:11;1.67;;;0.77;;
9958;SDS011;5019;48.012;7.812;2022-11-23T10:08:44;0.87;;;0.77;;
9958;SDS011;5019;48.012;7.812;2022-11-23T10:13:44;5.50;;;0.97;;
9958;SDS011;5019;48.012;7.812;2022-11-23T10:26:27;1.57;;;0.93;;
9958;SDS011;5019;48.012;7.812;2022-11-23T10:28:55;1.47;;;0.73;;
9958;SDS011;5019;48.012;7.812;2022-11-23T10:31:23;2.03;;;1.40;;
9958;SDS011;5019;48.012;7.812;2022-11-23T10:36:16;1.37;;;1.00;;
9958;SDS011;5019;48.012;7.812;2022-11-23T10:38:42;1.33;;;0.93;;
9958;SDS011;5019;48.012;7.812;2022-11-23T10:41:12;1.20;;;1.10;;
9958;SDS011;5019;48.012;7.812;2022-11-23T10:43:42;1.53;;;0.97;;
9958;SDS011;5019;48.012;7.812;2022-11-23T10:48:47;1.10;;;1.10;;
9958;SDS011;5019;48.012;7.812;2022-11-23T10:51:25;0.90;;;0.90;;
9958;SDS011;5019;48.012;7.812;2022-11-23T10:53:54;1.13;;;1.00;;
9958;SDS011;5019;48.012;7.812;2022-11-23T10:56:21;0.80;;;0.80;;
9958;SDS011;5019;48.012;7.812;2022-11-23T10:58:47;1.27;;;1.13;;
9958;SDS011;5019;48.012;7.812;2022-11-23T11:03:39;4.77;;;1.20;;
9958;SDS011;5019;48.012;7.812;2022-11-23T11:06:05;1.37;;;1.20;;
9958;SDS011;5019;48.012;7.812;2022-11-23T11:08:32;2.00;;;0.87;;
9958;SDS011;5019;48.012;7.812;2022-11-23T11:13:32;1.23;;;0.87;;
9958;SDS011;5019;48.012;7.812;2022-11-23T11:16:05;1.00;;;1.00;;
9958;SDS011;5019;48.012;7.812;2022-11-23T11:18:32;0.90;;;0.90;;
9958;SDS011;5019;48.012;7.812;2022-11-23T11:21:20;1.30;;;1.00;;
9958;SDS011;5019;48.012;7.812;2022-11-23T11:23:58;1.53;;;1.00;;
9958;SDS011;5019;48.012;7.812;2022-11-23T11:26:26;0.70;;;0.70;;
9958;SDS011;5019;48.012;7.812;2022-11-23T11:28:58;1.30;;;0.90;;
9958;SDS011;5019;48.012;7.812;2022-11-23T11:34:03;3.90;;;0.93;;
9958;SDS011;5019;48.012;7.812;2022-11-23T11:37:16;1.50;;;1.03;;
9958;SDS011;5019;48.012;7.812;2022-11-23T11:39:23;0.70;;;0.70;;
9958;SDS011;5019;48.012;7.812;2022-11-23T11:41:52;0.80;;;0.80;;
9958;SDS011;5019;48.012;7.812;2022-11-23T11:44:23;1.97;;;0.97;;
9958;SDS011;5019;48.012;7.812;2022-11-23T11:46:54;3.20;;;0.70;;
9958;SDS011;5019;48.012;7.812;2022-11-23T11:49:29;1.93;;;0.90;;
9958;SDS011;5019;48.012;7.812;2022-11-23T11:52:03;0.80;;;0.80;;
9958;SDS011;5019;48.012;7.812;2022-11-23T11:57:04;0.70;;;0.70;;
9958;SDS011;5019;48.012;7.812;2022-11-23T11:59:34;1.23;;;0.73;;
9958;SDS011;5019;48.012;7.812;2022-11-23T12:04:39;0.60;;;0.60;;
9958;SDS011;5019;48.012;7.812;2022-11-23T12:09:36;0.60;;;0.60;;
9958;SDS011;5019;48.012;7.812;2022-11-23T12:12:04;0.80;;;0.80;;
9958;SDS011;5019;48.012;7.812;2022-11-23T12:14:30;0.57;;;0.57;;
9958;SDS011;5019;48.012;7.812;2022-11-23T12:29:45;1.47;;;0.70;;
9958;SDS011;5019;48.012;7.812;2022-11-23T12:34:50;0.83;;;0.80;;
9958;SDS011;5019;48.012;7.812;2022-11-23T12:37:24;0.57;;;0.57;;
9958;SDS011;5019;48.012;7.812;2022-11-23T12:39:57;0.80;;;0.60;;
9958;SDS011;5019;48.012;7.812;2022-11-23T12:42:28;0.60;;;0.60;;
9958;SDS011;5019;48.012;7.812;2022-11-23T12:58:05;0.67;;;0.67;;
9958;SDS011;5019;48.012;7.812;2022-11-23T13:00:35;0.60;;;0.60;;
9958;SDS011;5019;48.012;7.812;2022-11-23T13:08:11;0.87;;;0.60;;
9958;SDS011;5019;48.012;7.812;2022-11-23T13:21:08;0.93;;;0.60;;
9958;SDS011;5019;48.012;7.812;2022-11-23T13:23:39;2.07;;;1.50;;
9958;SDS011;5019;48.012;7.812;2022-11-23T13:26:11;0.60;;;0.60;;
9958;SDS011;5019;48.012;7.812;2022-11-23T13:28:38;0.70;;;0.70;;
9958;SDS011;5019;48.012;7.812;2022-11-23T13:33:39;1.10;;;0.90;;
9958;SDS011;5019;48.012;7.812;2022-11-23T13:36:09;0.50;;;0.50;;
9958;SDS011;5019;48.012;7.812;2022-11-23T13:38:42;0.80;;;0.60;;
9958;SDS011;5019;48.012;7.812;2022-11-23T13:43:53;0.70;;;0.70;;
9958;SDS011;5019;48.012;7.812;2022-11-23T13:46:20;3.30;;;1.00;;
9958;SDS011;5019;48.012;7.812;2022-11-23T13:48:50;1.63;;;1.40;;
9958;SDS011;5019;48.012;7.812;2022-11-23T13:53:59;1.87;;;0.83;;
9958;SDS011;5019;48.012;7.812;2022-11-23T13:56:33;2.47;;;1.23;;
9958;SDS011;5019;48.012;7.812;2022-11-23T14:04:30;1.17;;;0.87;;
9958;SDS011;5019;48.012;7.812;2022-11-23T14:12:07;0.80;;;0.80;;
9958;SDS011;5019;48.012;7.812;2022-11-23T14:27:18;1.57;;;0.87;;
9958;SDS011;5019;48.012;7.812;2022-11-23T14:29:56;0.70;;;0.70;;
9958;SDS011;5019;48.012;7.812;2022-11-23T14:42:44;0.70;;;0.70;;
9958;SDS011;5019;48.012;7.812;2022-11-23T14:45:15;1.00;;;0.90;;
9958;SDS011;5019;48.012;7.812;2022-11-23T14:47:42;4.03;;;1.00;;
9958;SDS011;5019;48.012;7.812;2022-11-23T14:50:24;1.17;;;1.07;;
9958;SDS011;5019;48.012;7.812;2022-11-23T14:52:51;1.33;;;0.90;;
9958;SDS011;5019;48.012;7.812;2022-11-23T14:55:22;0.80;;;0.80;;
9958;SDS011;5019;48.012;7.812;2022-11-23T14:57:50;2.07;;;1.13;;
9958;SDS011;5019;48.012;7.812;2022-11-23T15:00:28;1.57;;;1.13;;
9958;SDS011;5019;48.012;7.812;2022-11-23T15:02:54;2.33;;;1.00;;
9958;SDS011;5019;48.012;7.812;2022-11-23T15:05:31;2.00;;;0.87;;
9958;SDS011;5019;48.012;7.812;2022-11-23T15:13:17;0.60;;;0.60;;
9958;SDS011;5019;48.012;7.812;2022-11-23T15:15:44;0.70;;;0.70;;
9958;SDS011;5019;48.012;7.812;2022-11-23T15:18:11;1.27;;;0.80;;
9958;SDS011;5019;48.012;7.812;2022-11-23T15:20:42;1.53;;;0.90;;
9958;SDS011;5019;48.012;7.812;2022-11-23T15:23:21;1.40;;;0.90;;
9958;SDS011;5019;48.012;7.812;2022-11-23T15:25:54;1.00;;;0.90;;
9958;SDS011;5019;48.012;7.812;2022-11-23T15:28:24;1.53;;;1.10;;
9958;SDS011;5019;48.012;7.812;2022-11-23T15:30:51;1.27;;;1.17;;
9958;SDS011;5019;48.012;7.812;2022-11-23T15:33:18;1.40;;;1.10;;
9958;SDS011;5019;48.012;7.812;2022-11-23T15:35:45;2.57;;;1.10;;
9958;SDS011;5019;48.012;7.812;2022-11-23T15:38:12;1.07;;;0.90;;
9958;SDS011;5019;48.012;7.812;2022-11-23T15:40:40;1.23;;;1.13;;
9958;SDS011;5019;48.012;7.812;2022-11-23T15:43:16;5.33;;;1.27;;
9958;SDS011;5019;48.012;7.812;2022-11-23T15:50:42;1.83;;;1.40;;
9958;SDS011;5019;48.012;7.812;2022-11-23T15:53:09;1.10;;;1.10;;
9958;SDS011;5019;48.012;7.812;2022-11-23T15:55:35;1.43;;;1.33;;
9958;SDS011;5019;48.012;7.812;2022-11-23T15:58:02;1.80;;;1.67;;
9958;SDS011;5019;48.012;7.812;2022-11-23T16:00:31;1.60;;;1.20;;
9958;SDS011;5019;48.012;7.812;2022-11-23T16:05:42;1.30;;;1.00;;
9958;SDS011;5019;48.012;7.812;2022-11-23T16:08:21;1.37;;;1.27;;
9958;SDS011;5019;48.012;7.812;2022-11-23T16:10:52;2.07;;;1.80;;
9958;SDS011;5019;48.012;7.812;2022-11-23T16:13:32;5.40;;;2.77;;
9958;SDS011;5019;48.012;7.812;2022-11-23T16:15:58;2.67;;;2.20;;
9958;SDS011;5019;48.012;7.812;2022-11-23T16:18:25;2.30;;;1.60;;
9958;SDS011;5019;48.012;7.812;2022-11-23T16:21:01;3.07;;;2.50;;
9958;SDS011;5019;48.012;7.812;2022-11-23T16:23:40;5.23;;;2.73;;
9958;SDS011;5019;48.012;7.812;2022-11-23T16:26:08;2.60;;;2.40;;
9958;SDS011;5019;48.012;7.812;2022-11-23T16:28:35;2.83;;;1.70;;
9958;SDS011;5019;48.012;7.812;2022-11-23T16:31:02;2.47;;;2.27;;
9958;SDS011;5019;48.012;7.812;2022-11-23T16:33:28;4.20;;;1.50;;
9958;SDS011;5019;48.012;7.812;2022-11-23T16:35:54;6.27;;;2.50;;
9958;SDS011;5019;48.012;7.812;2022-11-23T16:38:20;5.93;;;2.30;;
9958;SDS011;5019;48.012;7.812;2022-11-23T16:40:46;6.53;;;3.20;;
9958;SDS011;5019;48.012;7.812;2022-11-23T16:43:13;12.83;;;4.97;;
9958;SDS011;5019;48.012;7.812;2022-11-23T16:45:41;4.17;;;3.20;;
9958;SDS011;5019;48.012;7.812;2022-11-23T16:51:03;4.07;;;3.00;;
9958;SDS011;5019;48.012;7.812;2022-11-23T16:53:29;4.13;;;3.83;;
9958;SDS011;5019;48.012;7.812;2022-11-23T16:55:57;7.83;;;2.97;;
9958;SDS011;5019;48.012;7.812;2022-11-23T16:58:23;3.83;;;2.20;;
9958;SDS011;5019;48.012;7.812;2022-11-23T17:00:50;1.80;;;1.70;;
9958;SDS011;5019;48.012;7.812;2022-11-23T17:03:17;2.30;;;1.67;;
9958;SDS011;5019;48.012;7.812;2022-11-23T17:05:44;3.13;;;1.93;;
9958;SDS011;5019;48.012;7.812;2022-11-23T17:08:10;3.17;;;1.70;;
9958;SDS011;5019;48.012;7.812;2022-11-23T17:10:36;2.33;;;1.47;;
9958;SDS011;5019;48.012;7.812;2022-11-23T17:13:03;1.90;;;1.53;;
9958;SDS011;5019;48.012;7.812;2022-11-23T17:15:29;2.30;;;1.30;;
9958;SDS011;5019;48.012;7.812;2022-11-23T17:17:55;1.10;;;1.03;;
9958;SDS011;5019;48.012;7.812;2022-11-23T17:20:21;1.00;;;0.90;;
9958;SDS011;5019;48.012;7.812;2022-11-23T17:22:48;0.80;;;0.80;;
9958;SDS011;5019;48.012;7.812;2022-11-23T17:25:20;1.03;;;1.03;;
9958;SDS011;5019;48.012;7.812;2022-11-23T17:27:46;0.80;;;0.80;;
9958;SDS011;5019;48.012;7.812;2022-11-23T17:30:14;0.80;;;0.80;;
9958;SDS011;5019;48.012;7.812;2022-11-23T17:32:40;4.83;;;0.90;;
9958;SDS011;5019;48.012;7.812;2022-11-23T17:35:06;0.90;;;0.90;;
9958;SDS011;5019;48.012;7.812;2022-11-23T17:37:32;1.03;;;0.90;;
9958;SDS011;5019;48.012;7.812;2022-11-23T17:39:58;1.53;;;0.83;;
9958;SDS011;5019;48.012;7.812;2022-11-23T17:42:24;0.97;;;0.87;;